createdAt,value
2018-08-04T00:01:02.821Z,5.50
2018-08-04T00:04:06.487Z,5.70
2018-08-04T00:07:10.167Z,5.97
2018-08-04T00:10:18.675Z,6.00
2018-08-04T00:13:22.420Z,5.47
2018-08-04T00:16:26.048Z,6.00
2018-08-04T00:19:29.777Z,5.70
2018-08-04T00:22:33.522Z,5.27
2018-08-04T00:25:37.193Z,5.10
2018-08-04T00:28:40.878Z,5.40
2018-08-04T00:31:44.504Z,5.60
2018-08-04T00:34:48.208Z,4.87
2018-08-04T00:37:51.851Z,5.60
2018-08-04T00:40:55.524Z,6.57
2018-08-04T00:43:59.221Z,5.73
2018-08-04T00:47:02.866Z,6.07
2018-08-04T00:50:08.093Z,6.00
2018-08-04T00:53:11.802Z,6.00
2018-08-04T00:56:15.406Z,5.40
2018-08-04T00:59:19.232Z,5.43
2018-08-04T01:02:22.991Z,5.10
2018-08-04T01:05:26.606Z,4.87
2018-08-04T01:08:30.303Z,4.57
2018-08-04T01:11:33.913Z,4.27
2018-08-04T01:14:37.633Z,3.90
2018-08-04T01:17:41.407Z,4.10
2018-08-04T01:20:45.188Z,4.40
2018-08-04T01:23:48.944Z,3.93
2018-08-04T01:26:53.537Z,4.00
2018-08-04T01:29:57.151Z,3.83
2018-08-04T01:33:00.818Z,4.50
2018-08-04T01:36:04.449Z,3.97
2018-08-04T01:39:09.604Z,3.80
2018-08-04T01:42:13.163Z,4.00
2018-08-04T01:45:16.811Z,3.87
2018-08-04T01:48:20.483Z,3.73
2018-08-04T01:51:24.123Z,4.10
2018-08-04T01:54:27.778Z,4.10
2018-08-04T01:57:31.523Z,4.40
2018-08-04T02:00:35.169Z,4.73
2018-08-04T02:03:38.756Z,4.20
2018-08-04T02:06:42.461Z,4.17
2018-08-04T02:09:46.052Z,4.60
2018-08-04T02:12:49.702Z,4.40
2018-08-04T02:15:53.367Z,4.23
2018-08-04T02:18:56.914Z,4.90
2018-08-04T02:22:00.543Z,4.17
2018-08-04T02:25:04.657Z,4.57
2018-08-04T02:28:08.284Z,4.73
2018-08-04T02:31:11.939Z,4.53
2018-08-04T02:34:15.658Z,4.47
2018-08-04T02:37:19.364Z,4.67
2018-08-04T02:40:23.049Z,4.20
2018-08-04T02:43:26.629Z,4.50
2018-08-04T02:46:31.283Z,5.53
2018-08-04T02:49:35.002Z,4.37
2018-08-04T02:52:38.628Z,5.13
2018-08-04T02:55:42.329Z,4.67
2018-08-04T02:58:46.127Z,5.30
2018-08-04T03:01:49.769Z,5.10
2018-08-04T03:04:53.384Z,5.27
2018-08-04T03:07:57.157Z,5.40
2018-08-04T03:11:00.668Z,5.43
2018-08-04T03:14:04.478Z,5.40
2018-08-04T03:17:08.164Z,5.60
2018-08-04T03:20:11.822Z,5.90
2018-08-04T03:23:16.100Z,6.23
2018-08-04T03:26:19.723Z,6.27
2018-08-04T03:29:23.378Z,6.43
2018-08-04T03:32:26.984Z,6.73
2018-08-04T03:35:30.528Z,6.90
2018-08-04T03:38:34.090Z,6.67
2018-08-04T03:41:37.728Z,6.37
2018-08-04T03:44:41.359Z,6.80
2018-08-04T03:47:45.079Z,6.67
2018-08-04T03:50:48.753Z,6.63
2018-08-04T03:53:52.391Z,6.90
2018-08-04T03:56:55.967Z,6.30
2018-08-04T03:59:59.644Z,6.60
2018-08-04T04:03:03.403Z,6.90
2018-08-04T04:06:07.008Z,6.73
2018-08-04T04:09:11.340Z,6.20
2018-08-04T04:12:15.019Z,6.70
2018-08-04T04:15:18.739Z,6.80
2018-08-04T04:18:22.391Z,5.97
2018-08-04T04:21:26.190Z,5.43
2018-08-04T04:24:29.878Z,5.03
2018-08-04T04:27:33.764Z,5.50
2018-08-04T04:30:37.565Z,5.77
2018-08-04T04:33:41.113Z,5.40
2018-08-04T04:36:44.692Z,5.40
2018-08-04T04:39:48.330Z,4.80
2018-08-04T04:42:51.950Z,4.97
2018-08-04T04:45:55.655Z,4.40
2018-08-04T04:49:00.598Z,5.10
2018-08-04T04:52:04.355Z,4.87
2018-08-04T04:55:08.046Z,4.93
2018-08-04T04:58:11.740Z,4.43
2018-08-04T05:01:15.340Z,4.70
2018-08-04T05:04:19.200Z,5.00
2018-08-04T05:07:22.989Z,4.83
2018-08-04T05:10:26.660Z,4.87
2018-08-04T05:13:30.349Z,5.27
2018-08-04T05:16:33.905Z,5.83
2018-08-04T05:19:37.578Z,6.13
2018-08-04T05:22:41.341Z,6.73
2018-08-04T05:25:45.092Z,6.70
2018-08-04T05:28:48.704Z,7.00
2018-08-04T05:31:52.483Z,7.60
2018-08-04T05:34:56.132Z,8.00
2018-08-04T05:37:59.746Z,7.30
2018-08-04T05:41:03.453Z,7.40
2018-08-04T05:44:07.118Z,7.93
2018-08-04T05:47:10.682Z,8.17
2018-08-04T05:50:14.352Z,8.60
2018-08-04T05:53:17.892Z,8.10
2018-08-04T05:56:21.744Z,8.00
2018-08-04T05:59:25.400Z,7.83
2018-08-04T06:02:29.059Z,9.00
2018-08-04T06:05:32.830Z,9.30
2018-08-04T06:08:36.612Z,8.50
2018-08-04T06:11:41.020Z,8.23
2018-08-04T06:14:44.837Z,8.60
2018-08-04T06:17:48.388Z,8.73
2018-08-04T06:20:52.150Z,8.53
2018-08-04T06:23:56.012Z,8.20
2018-08-04T06:26:59.655Z,7.83
2018-08-04T06:30:03.462Z,8.40
2018-08-04T06:33:06.639Z,8.50
2018-08-04T06:36:10.312Z,7.67
2018-08-04T06:39:14.017Z,7.93
2018-08-04T06:42:17.613Z,7.63
2018-08-04T06:45:21.300Z,7.33
2018-08-04T06:48:24.905Z,7.57
2018-08-04T06:51:28.597Z,6.60
2018-08-04T06:54:32.389Z,6.87
2018-08-04T06:57:35.957Z,5.93
2018-08-04T07:00:39.602Z,7.57
2018-08-04T07:03:43.351Z,6.60
2018-08-04T07:06:47.271Z,6.80
2018-08-04T07:09:50.885Z,6.87
2018-08-04T07:12:54.473Z,6.40
2018-08-04T07:15:58.237Z,5.83
2018-08-04T07:19:01.763Z,6.80
2018-08-04T07:22:05.446Z,6.63
2018-08-04T07:25:09.367Z,6.80
2018-08-04T07:28:13.017Z,6.80
2018-08-04T07:31:16.751Z,6.47
2018-08-04T07:34:20.481Z,6.87
2018-08-04T07:37:24.183Z,6.87
2018-08-04T07:40:27.832Z,7.50
2018-08-04T07:43:31.477Z,7.27
2018-08-04T07:46:36.008Z,7.10
2018-08-04T07:49:39.656Z,7.50
2018-08-04T07:52:43.253Z,6.47
2018-08-04T07:55:46.949Z,7.67
2018-08-04T07:58:50.572Z,7.37
2018-08-04T08:01:54.421Z,6.90
2018-08-04T08:04:58.114Z,6.70
2018-08-04T08:08:01.738Z,6.40
2018-08-04T08:11:05.382Z,5.90
2018-08-04T08:14:09.111Z,6.40
2018-08-04T08:17:12.882Z,6.17
2018-08-04T08:20:16.627Z,6.67
2018-08-04T08:23:20.317Z,6.80
2018-08-04T08:26:23.992Z,6.23
2018-08-04T08:29:27.665Z,5.50
2018-08-04T08:32:31.456Z,6.00
2018-08-04T08:35:35.127Z,6.17
2018-08-04T08:38:38.817Z,5.93
2018-08-04T08:41:42.419Z,6.33
2018-08-04T08:44:46.077Z,6.37
2018-08-04T08:47:49.827Z,6.20
2018-08-04T08:50:53.467Z,6.23
2018-08-04T08:53:57.202Z,5.30
2018-08-04T08:57:00.909Z,5.50
2018-08-04T09:00:06.162Z,5.40
2018-08-04T09:03:10.178Z,6.40
2018-08-04T09:06:13.826Z,6.47
2018-08-04T09:09:17.518Z,5.80
2018-08-04T09:12:21.169Z,4.70
2018-08-04T09:15:24.839Z,5.10
2018-08-04T09:18:28.502Z,4.80
2018-08-04T09:21:32.184Z,5.20
2018-08-04T09:24:36.026Z,4.77
2018-08-04T09:27:39.954Z,4.20
2018-08-04T09:30:43.580Z,4.27
2018-08-04T09:33:47.352Z,4.20
2018-08-04T09:36:51.023Z,4.70
2018-08-04T09:39:54.698Z,4.23
2018-08-04T09:42:58.383Z,4.00
2018-08-04T09:46:02.022Z,3.90
2018-08-04T09:49:05.899Z,3.80
2018-08-04T09:52:09.574Z,3.30
2018-08-04T09:55:13.398Z,3.60
2018-08-04T09:58:16.963Z,3.77
2018-08-04T10:01:25.790Z,3.40
2018-08-04T10:04:29.412Z,3.40
2018-08-04T10:07:33.047Z,3.63
2018-08-04T10:10:36.788Z,3.97
2018-08-04T10:13:40.462Z,3.63
2018-08-04T10:16:44.112Z,3.43
2018-08-04T10:19:47.741Z,3.47
2018-08-04T10:22:51.413Z,3.43
2018-08-04T10:25:55.129Z,3.27
2018-08-04T10:28:58.823Z,3.43
2018-08-04T10:32:02.682Z,3.33
2018-08-04T10:35:06.882Z,3.00
2018-08-04T10:38:10.672Z,3.67
2018-08-04T10:41:14.367Z,3.50
2018-08-04T10:44:18.009Z,3.37
2018-08-04T10:47:21.606Z,3.17
2018-08-04T10:50:25.249Z,3.20
2018-08-04T10:53:28.860Z,3.30
2018-08-04T10:56:32.603Z,3.50
2018-08-04T10:59:36.264Z,3.20
2018-08-04T11:02:40.023Z,3.90
2018-08-04T11:05:43.638Z,3.40
2018-08-04T11:08:47.364Z,3.70
2018-08-04T11:11:51.069Z,3.70
2018-08-04T11:14:54.710Z,4.10
2018-08-04T11:17:58.343Z,3.80
2018-08-04T11:21:02.633Z,3.90
2018-08-04T11:24:06.535Z,3.90
2018-08-04T11:27:10.059Z,3.77
2018-08-04T11:30:13.691Z,3.60
2018-08-04T11:33:17.365Z,4.00
2018-08-04T11:36:21.186Z,3.77
2018-08-04T11:39:24.733Z,3.60
2018-08-04T11:42:28.493Z,3.70
2018-08-04T11:45:32.221Z,3.57
2018-08-04T11:48:35.916Z,3.90
2018-08-04T11:51:39.733Z,3.60
2018-08-04T11:54:43.367Z,3.83
2018-08-04T11:57:47.103Z,3.67
2018-08-04T12:00:50.938Z,3.33
2018-08-04T12:03:54.961Z,3.30
2018-08-04T12:06:58.670Z,3.10
2018-08-04T12:10:02.604Z,3.43
2018-08-04T12:13:06.275Z,3.40
2018-08-04T12:16:12.266Z,3.50
2018-08-04T12:19:15.875Z,3.43
2018-08-04T12:22:19.729Z,3.37
2018-08-04T12:25:23.564Z,3.17
2018-08-04T12:28:27.133Z,3.47
2018-08-04T12:31:30.785Z,3.27
2018-08-04T12:34:34.506Z,3.23
2018-08-04T12:37:38.533Z,3.47
2018-08-04T12:40:42.134Z,3.33
2018-08-04T12:43:45.809Z,3.10
2018-08-04T12:46:49.530Z,3.30
2018-08-04T12:49:53.106Z,3.30
2018-08-04T12:52:56.754Z,3.07
2018-08-04T12:56:00.950Z,2.97
2018-08-04T12:59:04.589Z,3.20
2018-08-04T13:02:08.551Z,3.10
2018-08-04T13:05:12.442Z,3.63
2018-08-04T13:08:16.190Z,3.20
2018-08-04T13:11:20.213Z,3.23
2018-08-04T13:14:23.856Z,3.30
2018-08-04T13:17:27.489Z,3.23
2018-08-04T13:20:31.221Z,3.17
2018-08-04T13:23:35.015Z,3.27
2018-08-04T13:26:38.691Z,3.10
2018-08-04T13:29:42.318Z,3.20
2018-08-04T13:32:45.942Z,3.00
2018-08-04T13:35:49.894Z,3.20
2018-08-04T13:38:53.451Z,3.50
2018-08-04T13:41:57.189Z,3.20
2018-08-04T13:45:00.840Z,3.23
2018-08-04T13:48:04.669Z,3.67
2018-08-04T13:51:08.528Z,3.20
2018-08-04T13:54:12.085Z,3.30
2018-08-04T13:57:15.718Z,3.20
2018-08-04T14:00:19.477Z,3.30
2018-08-04T14:03:23.150Z,2.93
2018-08-04T14:06:26.814Z,3.17
2018-08-04T14:09:30.422Z,3.30
2018-08-04T14:12:34.136Z,2.90
2018-08-04T14:15:37.825Z,3.20
2018-08-04T14:18:41.792Z,2.80
2018-08-04T14:21:45.556Z,2.70
2018-08-04T14:24:49.382Z,3.13
2018-08-04T14:27:53.076Z,2.90
2018-08-04T14:30:56.696Z,2.67
2018-08-04T14:34:00.548Z,2.87
2018-08-04T14:37:04.215Z,2.90
2018-08-04T14:40:07.866Z,2.70
2018-08-04T14:43:11.556Z,3.00
2018-08-04T14:46:15.313Z,2.87
2018-08-04T14:49:19.023Z,2.87
2018-08-04T14:52:22.933Z,2.60
2018-08-04T14:55:26.511Z,2.87
2018-08-04T14:58:30.195Z,2.60
2018-08-04T15:01:33.806Z,2.57
2018-08-04T15:04:37.467Z,2.80
2018-08-04T15:07:41.247Z,2.53
2018-08-04T15:10:45.061Z,2.70
2018-08-04T15:13:48.726Z,2.80
2018-08-04T15:16:52.418Z,2.73
2018-08-04T15:19:56.053Z,3.20
2018-08-04T15:22:59.696Z,2.80
2018-08-04T15:26:03.486Z,2.63
2018-08-04T15:29:07.252Z,2.83
2018-08-04T15:32:10.883Z,2.90
2018-08-04T15:35:14.647Z,2.93
2018-08-04T15:38:18.496Z,2.90
2018-08-04T15:41:22.130Z,3.03
2018-08-04T15:44:25.765Z,2.93
2018-08-04T15:47:29.468Z,2.87
2018-08-04T15:50:33.278Z,3.20
2018-08-04T15:53:37.052Z,3.00
2018-08-04T15:56:40.743Z,3.20
2018-08-04T15:59:44.389Z,2.80
2018-08-04T16:02:48.021Z,3.20
2018-08-04T16:05:51.943Z,3.23
2018-08-04T16:08:55.617Z,3.37
2018-08-04T16:11:59.286Z,3.50
2018-08-04T16:15:03.004Z,3.30
2018-08-04T16:18:06.744Z,3.33
2018-08-04T16:21:10.464Z,3.20
2018-08-04T16:24:14.275Z,3.13
2018-08-04T16:27:17.992Z,2.97
2018-08-04T16:30:21.786Z,3.20
2018-08-04T16:33:25.512Z,3.00
2018-08-04T16:36:29.243Z,2.77
2018-08-04T16:39:32.935Z,2.90
2018-08-04T16:42:36.621Z,2.90
2018-08-04T16:45:40.386Z,3.50
2018-08-04T16:48:44.001Z,2.70
2018-08-04T16:51:47.668Z,3.03
2018-08-04T16:54:51.330Z,3.17
2018-08-04T16:57:54.957Z,3.27
2018-08-04T17:00:58.566Z,2.97
2018-08-04T17:04:02.223Z,3.33
2018-08-04T17:07:06.021Z,3.43
2018-08-04T17:10:09.717Z,3.10
2018-08-04T17:13:13.377Z,3.40
2018-08-04T17:16:16.989Z,3.67
2018-08-04T17:19:20.639Z,3.57
2018-08-04T17:22:24.307Z,3.60
2018-08-04T17:25:28.106Z,3.53
2018-08-04T17:28:31.835Z,3.67
2018-08-04T17:31:35.562Z,3.37
2018-08-04T17:34:39.208Z,3.90
2018-08-04T17:37:43.067Z,3.83
2018-08-04T17:40:46.687Z,3.70
2018-08-04T17:43:50.567Z,4.20
2018-08-04T17:46:54.183Z,4.03
2018-08-04T17:49:57.857Z,3.83
2018-08-04T17:53:01.507Z,3.70
2018-08-04T17:56:05.350Z,4.03
2018-08-04T17:59:09.049Z,3.80
2018-08-04T18:02:12.717Z,4.10
2018-08-04T18:05:16.326Z,4.10
2018-08-04T18:08:20.263Z,4.60
2018-08-04T18:11:24.289Z,4.33
2018-08-04T18:14:28.074Z,4.60
2018-08-04T18:17:31.750Z,3.80
2018-08-04T18:20:35.429Z,4.60
2018-08-04T18:23:39.258Z,4.60
2018-08-04T18:26:42.947Z,4.00
2018-08-04T18:29:46.888Z,4.70
2018-08-04T18:32:50.603Z,4.40
2018-08-04T18:35:54.519Z,4.30
2018-08-04T18:38:58.201Z,4.30
2018-08-04T18:42:01.905Z,3.90
2018-08-04T18:45:06.464Z,4.20
2018-08-04T18:48:10.990Z,4.70
2018-08-04T18:51:14.707Z,3.90
2018-08-04T18:54:18.505Z,4.30
2018-08-04T18:57:23.004Z,4.90
2018-08-04T19:00:26.777Z,4.63
2018-08-04T19:03:30.531Z,4.30
2018-08-04T19:06:34.184Z,4.60
2018-08-04T19:09:37.921Z,4.53
2018-08-04T19:12:41.675Z,4.03
2018-08-04T19:15:45.411Z,4.57
2018-08-04T19:18:49.368Z,4.50
2018-08-04T19:21:53.028Z,4.50
2018-08-04T19:24:56.966Z,4.70
2018-08-04T19:28:00.660Z,4.30
2018-08-04T19:31:04.543Z,4.50
2018-08-04T19:34:08.203Z,4.90
2018-08-04T19:37:12.084Z,4.20
2018-08-04T19:40:15.829Z,4.73
2018-08-04T19:43:19.510Z,4.40
2018-08-04T19:46:23.380Z,4.50
2018-08-04T19:49:26.968Z,4.40
2018-08-04T19:52:30.823Z,4.20
2018-08-04T19:55:34.569Z,4.20
2018-08-04T19:58:38.250Z,4.00
2018-08-04T20:01:42.064Z,4.13
2018-08-04T20:04:45.841Z,3.90
2018-08-04T20:07:49.711Z,3.53
2018-08-04T20:10:53.334Z,3.87
2018-08-04T20:13:57.049Z,3.87
2018-08-04T20:17:00.789Z,3.50
2018-08-04T20:20:04.764Z,3.60
2018-08-04T20:23:08.399Z,4.10
2018-08-04T20:26:12.134Z,4.00
2018-08-04T20:29:15.792Z,3.63
2018-08-04T20:32:19.573Z,3.70
2018-08-04T20:35:23.315Z,3.67
2018-08-04T20:38:26.978Z,3.50
2018-08-04T20:41:30.731Z,3.47
2018-08-04T20:44:34.594Z,3.37
2018-08-04T20:47:38.334Z,3.50
2018-08-04T20:50:42.748Z,3.53
2018-08-04T20:53:46.433Z,3.30
2018-08-04T20:56:50.369Z,3.50
2018-08-04T20:59:54.015Z,3.57
2018-08-04T21:02:57.672Z,3.77
2018-08-04T21:06:01.402Z,3.40
2018-08-04T21:09:07.059Z,3.20
2018-08-04T21:12:10.846Z,3.50
2018-08-04T21:15:14.564Z,3.47
2018-08-04T21:18:18.261Z,3.60
2018-08-04T21:21:24.239Z,3.53
2018-08-04T21:24:28.205Z,3.27
2018-08-04T21:27:31.876Z,3.50
2018-08-04T21:30:35.726Z,3.67
2018-08-04T21:33:39.455Z,3.00
2018-08-04T21:36:44.170Z,3.33
2018-08-04T21:39:47.786Z,3.43
2018-08-04T21:42:51.459Z,3.30
2018-08-04T21:45:55.167Z,3.20
2018-08-04T21:48:58.870Z,3.47
2018-08-04T21:52:02.590Z,3.10
2018-08-04T21:55:06.560Z,3.07
2018-08-04T21:58:10.242Z,3.10
2018-08-04T22:01:14.869Z,3.33
2018-08-04T22:04:18.634Z,3.43
2018-08-04T22:07:43.516Z,3.40
2018-08-04T22:10:47.012Z,3.43
2018-08-04T22:13:50.732Z,3.03
2018-08-04T22:16:54.488Z,3.63
2018-08-04T22:19:58.185Z,3.80
2018-08-04T22:23:01.790Z,3.43
2018-08-04T22:26:05.842Z,3.30
2018-08-04T22:29:09.491Z,3.33
2018-08-04T22:32:13.164Z,3.40
2018-08-04T22:35:16.905Z,3.70
2018-08-04T22:38:20.802Z,3.40
2018-08-04T22:41:24.500Z,3.97
2018-08-04T22:44:28.379Z,3.37
2018-08-04T22:47:32.071Z,3.10
2018-08-04T22:50:35.685Z,3.97
2018-08-04T22:53:39.478Z,3.40
2018-08-04T22:56:43.234Z,3.60
2018-08-04T22:59:46.862Z,3.73
2018-08-04T23:02:50.535Z,3.50
2018-08-04T23:05:54.412Z,3.50
2018-08-04T23:08:58.050Z,3.80
2018-08-04T23:12:01.877Z,3.53
2018-08-04T23:15:05.625Z,3.47
2018-08-04T23:18:09.931Z,4.00
2018-08-04T23:21:13.644Z,3.67
2018-08-04T23:24:17.354Z,3.70
2018-08-04T23:27:21.004Z,3.93
2018-08-04T23:30:24.722Z,3.70
2018-08-04T23:33:28.328Z,4.00
2018-08-04T23:36:31.967Z,3.80
2018-08-04T23:39:35.640Z,3.87
2018-08-04T23:42:39.306Z,4.10
2018-08-04T23:45:42.871Z,4.33
2018-08-04T23:48:46.440Z,4.27
2018-08-04T23:51:50.244Z,4.10
2018-08-04T23:54:53.847Z,4.70
2018-08-04T23:57:57.621Z,4.70
